sensor_id;sensor_type;location;lat;lon;timestamp;P1;durP1;ratioP1;P2;durP2;ratioP2
1128;SDS011;553;51.038;7.216;2023-04-02T00:02:59;19.20;;;12.20;;
1128;SDS011;553;51.038;7.216;2023-04-02T00:05:38;18.80;;;12.17;;
1128;SDS011;553;51.038;7.216;2023-04-02T00:08:21;19.40;;;12.97;;
1128;SDS011;553;51.038;7.216;2023-04-02T00:10:55;21.40;;;14.50;;
1128;SDS011;553;51.038;7.216;2023-04-02T00:13:31;16.60;;;11.17;;
1128;SDS011;553;51.038;7.216;2023-04-02T00:16:05;17.90;;;12.80;;
1128;SDS011;553;51.038;7.216;2023-04-02T00:18:38;22.60;;;12.40;;
1128;SDS011;553;51.038;7.216;2023-04-02T00:23:49;19.80;;;13.50;;
1128;SDS011;553;51.038;7.216;2023-04-02T00:26:22;21.43;;;12.40;;
1128;SDS011;553;51.038;7.216;2023-04-02T00:29:02;17.73;;;11.10;;
1128;SDS011;553;51.038;7.216;2023-04-02T00:31:30;19.40;;;12.20;;
1128;SDS011;553;51.038;7.216;2023-04-02T00:33:58;20.03;;;12.57;;
1128;SDS011;553;51.038;7.216;2023-04-02T00:36:28;21.90;;;13.07;;
1128;SDS011;553;51.038;7.216;2023-04-02T00:39:00;21.67;;;12.87;;
1128;SDS011;553;51.038;7.216;2023-04-02T00:41:30;21.47;;;13.23;;
1128;SDS011;553;51.038;7.216;2023-04-02T00:44:01;32.03;;;15.33;;
1128;SDS011;553;51.038;7.216;2023-04-02T00:46:49;24.87;;;14.23;;
1128;SDS011;553;51.038;7.216;2023-04-02T00:49:21;12.87;;;7.67;;
1128;SDS011;553;51.038;7.216;2023-04-02T00:52:03;6.03;;;4.30;;
1128;SDS011;553;51.038;7.216;2023-04-02T00:54:37;5.27;;;3.53;;
1128;SDS011;553;51.038;7.216;2023-04-02T00:57:27;5.60;;;3.43;;
1128;SDS011;553;51.038;7.216;2023-04-02T00:59:57;4.20;;;3.10;;
1128;SDS011;553;51.038;7.216;2023-04-02T01:02:29;4.67;;;2.80;;
1128;SDS011;553;51.038;7.216;2023-04-02T01:04:59;4.53;;;3.30;;
1128;SDS011;553;51.038;7.216;2023-04-02T01:07:38;4.00;;;2.87;;
1128;SDS011;553;51.038;7.216;2023-04-02T01:10:19;4.13;;;2.90;;
1128;SDS011;553;51.038;7.216;2023-04-02T01:16:10;4.27;;;3.20;;
1128;SDS011;553;51.038;7.216;2023-04-02T01:24:29;3.20;;;2.30;;
1128;SDS011;553;51.038;7.216;2023-04-02T01:27:00;4.73;;;3.57;;
1128;SDS011;553;51.038;7.216;2023-04-02T01:29:33;5.10;;;3.50;;
1128;SDS011;553;51.038;7.216;2023-04-02T01:32:08;3.83;;;2.80;;
1128;SDS011;553;51.038;7.216;2023-04-02T01:34:38;3.90;;;3.17;;
1128;SDS011;553;51.038;7.216;2023-04-02T01:37:25;5.17;;;3.40;;
1128;SDS011;553;51.038;7.216;2023-04-02T01:40:34;4.60;;;3.10;;
1128;SDS011;553;51.038;7.216;2023-04-02T01:45:52;5.00;;;3.47;;
1128;SDS011;553;51.038;7.216;2023-04-02T01:48:21;5.60;;;3.67;;
1128;SDS011;553;51.038;7.216;2023-04-02T01:50:52;5.00;;;3.20;;
1128;SDS011;553;51.038;7.216;2023-04-02T01:53:23;5.80;;;4.23;;
1128;SDS011;553;51.038;7.216;2023-04-02T01:55:55;5.33;;;3.87;;
1128;SDS011;553;51.038;7.216;2023-04-02T01:58:25;6.00;;;3.90;;
1128;SDS011;553;51.038;7.216;2023-04-02T02:03:32;4.80;;;3.20;;
1128;SDS011;553;51.038;7.216;2023-04-02T02:06:02;4.60;;;3.50;;
1128;SDS011;553;51.038;7.216;2023-04-02T02:08:38;5.63;;;3.77;;
1128;SDS011;553;51.038;7.216;2023-04-02T02:11:17;6.27;;;4.17;;
1128;SDS011;553;51.038;7.216;2023-04-02T02:13:51;7.13;;;4.63;;
1128;SDS011;553;51.038;7.216;2023-04-02T02:16:21;5.80;;;4.20;;
1128;SDS011;553;51.038;7.216;2023-04-02T02:18:50;6.20;;;4.83;;
1128;SDS011;553;51.038;7.216;2023-04-02T02:21:38;6.87;;;4.77;;
1128;SDS011;553;51.038;7.216;2023-04-02T02:24:13;6.17;;;5.20;;
1128;SDS011;553;51.038;7.216;2023-04-02T02:26:47;7.83;;;4.73;;
1128;SDS011;553;51.038;7.216;2023-04-02T02:29:20;8.23;;;5.80;;
1128;SDS011;553;51.038;7.216;2023-04-02T02:31:51;10.83;;;5.20;;
1128;SDS011;553;51.038;7.216;2023-04-02T02:34:21;7.10;;;4.83;;
1128;SDS011;553;51.038;7.216;2023-04-02T02:36:55;7.70;;;5.47;;
1128;SDS011;553;51.038;7.216;2023-04-02T02:39:33;7.57;;;5.20;;
1128;SDS011;553;51.038;7.216;2023-04-02T02:44:38;8.67;;;5.20;;
1128;SDS011;553;51.038;7.216;2023-04-02T02:47:23;7.37;;;5.73;;
1128;SDS011;553;51.038;7.216;2023-04-02T02:49:56;7.00;;;5.30;;
1128;SDS011;553;51.038;7.216;2023-04-02T02:52:31;7.83;;;5.13;;
1128;SDS011;553;51.038;7.216;2023-04-02T02:55:09;6.93;;;5.83;;
1128;SDS011;553;51.038;7.216;2023-04-02T03:00:40;7.83;;;6.20;;
1128;SDS011;553;51.038;7.216;2023-04-02T03:03:10;8.73;;;6.20;;
1128;SDS011;553;51.038;7.216;2023-04-02T03:05:41;10.10;;;6.53;;
1128;SDS011;553;51.038;7.216;2023-04-02T03:08:24;8.60;;;6.40;;
1128;SDS011;553;51.038;7.216;2023-04-02T03:11:00;9.50;;;6.43;;
1128;SDS011;553;51.038;7.216;2023-04-02T03:13:36;8.53;;;5.73;;
1128;SDS011;553;51.038;7.216;2023-04-02T03:16:13;8.00;;;5.50;;
1128;SDS011;553;51.038;7.216;2023-04-02T03:18:53;10.30;;;6.87;;
1128;SDS011;553;51.038;7.216;2023-04-02T03:21:35;10.37;;;7.07;;
1128;SDS011;553;51.038;7.216;2023-04-02T03:26:54;11.10;;;7.00;;
1128;SDS011;553;51.038;7.216;2023-04-02T03:29:28;9.73;;;7.20;;
1128;SDS011;553;51.038;7.216;2023-04-02T03:31:59;10.73;;;6.73;;
1128;SDS011;553;51.038;7.216;2023-04-02T03:34:39;11.37;;;8.07;;
1128;SDS011;553;51.038;7.216;2023-04-02T03:42:22;11.27;;;7.20;;
1128;SDS011;553;51.038;7.216;2023-04-02T03:47:46;15.80;;;9.63;;
1128;SDS011;553;51.038;7.216;2023-04-02T03:50:34;14.13;;;9.80;;
1128;SDS011;553;51.038;7.216;2023-04-02T03:53:06;18.10;;;9.90;;
1128;SDS011;553;51.038;7.216;2023-04-02T03:55:35;16.23;;;10.30;;
1128;SDS011;553;51.038;7.216;2023-04-02T03:58:14;14.67;;;9.90;;
1128;SDS011;553;51.038;7.216;2023-04-02T04:01:05;12.93;;;8.73;;
1128;SDS011;553;51.038;7.216;2023-04-02T04:03:43;14.20;;;8.00;;
1128;SDS011;553;51.038;7.216;2023-04-02T04:06:19;12.73;;;7.57;;
1128;SDS011;553;51.038;7.216;2023-04-02T04:08:56;14.97;;;9.73;;
1128;SDS011;553;51.038;7.216;2023-04-02T04:11:29;11.97;;;8.73;;
1128;SDS011;553;51.038;7.216;2023-04-02T04:14:07;12.53;;;8.17;;
1128;SDS011;553;51.038;7.216;2023-04-02T04:16:42;10.23;;;6.60;;
1128;SDS011;553;51.038;7.216;2023-04-02T04:19:17;13.70;;;8.73;;
1128;SDS011;553;51.038;7.216;2023-04-02T04:21:46;11.90;;;7.00;;
1128;SDS011;553;51.038;7.216;2023-04-02T04:24:22;11.33;;;8.07;;
1128;SDS011;553;51.038;7.216;2023-04-02T04:26:55;12.83;;;7.90;;
1128;SDS011;553;51.038;7.216;2023-04-02T04:29:58;11.23;;;7.97;;
1128;SDS011;553;51.038;7.216;2023-04-02T04:32:47;9.27;;;6.50;;
1128;SDS011;553;51.038;7.216;2023-04-02T04:38:03;10.70;;;7.50;;
1128;SDS011;553;51.038;7.216;2023-04-02T04:40:41;10.00;;;7.70;;
1128;SDS011;553;51.038;7.216;2023-04-02T04:43:21;10.20;;;6.83;;
1128;SDS011;553;51.038;7.216;2023-04-02T04:45:59;11.03;;;7.07;;
1128;SDS011;553;51.038;7.216;2023-04-02T04:48:35;9.97;;;7.47;;
1128;SDS011;553;51.038;7.216;2023-04-02T04:51:39;10.53;;;6.50;;
1128;SDS011;553;51.038;7.216;2023-04-02T04:54:11;10.37;;;7.00;;
1128;SDS011;553;51.038;7.216;2023-04-02T04:56:44;8.60;;;6.63;;
1128;SDS011;553;51.038;7.216;2023-04-02T04:59:22;9.00;;;7.00;;
1128;SDS011;553;51.038;7.216;2023-04-02T05:04:55;9.13;;;6.67;;
1128;SDS011;553;51.038;7.216;2023-04-02T05:07:29;9.80;;;6.87;;
1128;SDS011;553;51.038;7.216;2023-04-02T05:12:55;10.20;;;7.47;;
1128;SDS011;553;51.038;7.216;2023-04-02T05:15:33;8.00;;;6.13;;
1128;SDS011;553;51.038;7.216;2023-04-02T05:23:31;11.10;;;7.83;;
1128;SDS011;553;51.038;7.216;2023-04-02T05:26:11;9.00;;;6.37;;
1128;SDS011;553;51.038;7.216;2023-04-02T05:28:56;10.60;;;7.10;;
1128;SDS011;553;51.038;7.216;2023-04-02T05:34:06;12.33;;;8.70;;
1128;SDS011;553;51.038;7.216;2023-04-02T05:36:33;11.37;;;7.73;;
1128;SDS011;553;51.038;7.216;2023-04-02T05:39:01;10.00;;;7.10;;
1128;SDS011;553;51.038;7.216;2023-04-02T05:41:43;9.20;;;6.80;;
1128;SDS011;553;51.038;7.216;2023-04-02T05:44:27;9.87;;;7.10;;
1128;SDS011;553;51.038;7.216;2023-04-02T05:46:58;12.80;;;8.50;;
1128;SDS011;553;51.038;7.216;2023-04-02T05:52:41;11.20;;;7.70;;
1128;SDS011;553;51.038;7.216;2023-04-02T05:57:50;11.20;;;8.20;;
1128;SDS011;553;51.038;7.216;2023-04-02T06:00:41;11.27;;;8.17;;
1128;SDS011;553;51.038;7.216;2023-04-02T06:06:06;10.20;;;7.33;;
1128;SDS011;553;51.038;7.216;2023-04-02T06:08:52;11.70;;;7.83;;
1128;SDS011;553;51.038;7.216;2023-04-02T06:11:26;12.67;;;9.03;;
1128;SDS011;553;51.038;7.216;2023-04-02T06:13:57;11.20;;;7.03;;
1128;SDS011;553;51.038;7.216;2023-04-02T06:16:26;10.30;;;7.87;;
1128;SDS011;553;51.038;7.216;2023-04-02T06:18:53;12.00;;;8.90;;
1128;SDS011;553;51.038;7.216;2023-04-02T06:21:21;12.33;;;9.40;;
1128;SDS011;553;51.038;7.216;2023-04-02T06:26:33;8.73;;;7.37;;
1128;SDS011;553;51.038;7.216;2023-04-02T06:29:07;13.33;;;8.80;;
1128;SDS011;553;51.038;7.216;2023-04-02T06:31:53;9.70;;;7.60;;
1128;SDS011;553;51.038;7.216;2023-04-02T06:34:25;10.93;;;9.20;;
1128;SDS011;553;51.038;7.216;2023-04-02T06:36:59;12.03;;;7.30;;
1128;SDS011;553;51.038;7.216;2023-04-02T06:39:37;14.27;;;8.50;;
1128;SDS011;553;51.038;7.216;2023-04-02T06:42:09;10.73;;;7.90;;
1128;SDS011;553;51.038;7.216;2023-04-02T06:44:57;14.37;;;9.77;;
1128;SDS011;553;51.038;7.216;2023-04-02T06:47:45;13.47;;;9.60;;
1128;SDS011;553;51.038;7.216;2023-04-02T06:50:26;14.10;;;8.20;;
1128;SDS011;553;51.038;7.216;2023-04-02T06:53:18;11.67;;;8.40;;
1128;SDS011;553;51.038;7.216;2023-04-02T06:58:33;15.30;;;8.90;;
1128;SDS011;553;51.038;7.216;2023-04-02T07:01:00;14.60;;;10.57;;
1128;SDS011;553;51.038;7.216;2023-04-02T07:03:39;13.27;;;8.57;;
1128;SDS011;553;51.038;7.216;2023-04-02T07:06:14;15.83;;;10.00;;
1128;SDS011;553;51.038;7.216;2023-04-02T07:08:43;13.03;;;9.67;;
1128;SDS011;553;51.038;7.216;2023-04-02T07:11:15;15.50;;;10.87;;
1128;SDS011;553;51.038;7.216;2023-04-02T07:13:47;13.97;;;9.57;;
1128;SDS011;553;51.038;7.216;2023-04-02T07:16:17;16.53;;;10.03;;
1128;SDS011;553;51.038;7.216;2023-04-02T07:18:46;12.23;;;8.90;;
1128;SDS011;553;51.038;7.216;2023-04-02T07:21:13;14.67;;;10.13;;
1128;SDS011;553;51.038;7.216;2023-04-02T07:23:40;14.40;;;8.40;;
1128;SDS011;553;51.038;7.216;2023-04-02T07:26:10;10.63;;;7.67;;
1128;SDS011;553;51.038;7.216;2023-04-02T07:28:43;17.00;;;10.20;;
1128;SDS011;553;51.038;7.216;2023-04-02T07:33:43;15.30;;;9.30;;
1128;SDS011;553;51.038;7.216;2023-04-02T07:36:20;14.53;;;9.77;;
1128;SDS011;553;51.038;7.216;2023-04-02T07:38:48;16.17;;;10.20;;
1128;SDS011;553;51.038;7.216;2023-04-02T07:41:16;18.50;;;10.30;;
1128;SDS011;553;51.038;7.216;2023-04-02T07:43:45;15.60;;;10.10;;
1128;SDS011;553;51.038;7.216;2023-04-02T07:46:12;14.53;;;10.53;;
1128;SDS011;553;51.038;7.216;2023-04-02T07:48:42;15.20;;;9.87;;
1128;SDS011;553;51.038;7.216;2023-04-02T07:51:19;15.60;;;9.70;;
1128;SDS011;553;51.038;7.216;2023-04-02T07:53:51;14.57;;;8.57;;
1128;SDS011;553;51.038;7.216;2023-04-02T07:56:22;16.27;;;9.80;;
1128;SDS011;553;51.038;7.216;2023-04-02T07:58:50;14.23;;;9.90;;
1128;SDS011;553;51.038;7.216;2023-04-02T08:01:24;12.30;;;9.37;;
1128;SDS011;553;51.038;7.216;2023-04-02T08:03:52;15.97;;;10.70;;
1128;SDS011;553;51.038;7.216;2023-04-02T08:06:20;14.90;;;10.20;;
1128;SDS011;553;51.038;7.216;2023-04-02T08:08:47;15.10;;;10.77;;
1128;SDS011;553;51.038;7.216;2023-04-02T08:11:15;15.67;;;10.73;;
1128;SDS011;553;51.038;7.216;2023-04-02T08:13:42;17.47;;;11.17;;
1128;SDS011;553;51.038;7.216;2023-04-02T08:16:09;18.13;;;10.63;;
1128;SDS011;553;51.038;7.216;2023-04-02T08:18:36;15.97;;;10.50;;
1128;SDS011;553;51.038;7.216;2023-04-02T08:21:06;17.63;;;11.00;;
1128;SDS011;553;51.038;7.216;2023-04-02T08:23:34;17.83;;;11.90;;
1128;SDS011;553;51.038;7.216;2023-04-02T08:26:03;18.40;;;11.57;;
1128;SDS011;553;51.038;7.216;2023-04-02T08:28:30;15.77;;;10.47;;
1128;SDS011;553;51.038;7.216;2023-04-02T08:30:57;17.77;;;11.83;;
1128;SDS011;553;51.038;7.216;2023-04-02T08:33:24;17.60;;;11.73;;
1128;SDS011;553;51.038;7.216;2023-04-02T08:35:51;17.83;;;12.50;;
1128;SDS011;553;51.038;7.216;2023-04-02T08:38:19;17.40;;;12.13;;
1128;SDS011;553;51.038;7.216;2023-04-02T08:40:51;15.90;;;11.17;;
1128;SDS011;553;51.038;7.216;2023-04-02T08:43:42;17.90;;;11.60;;
1128;SDS011;553;51.038;7.216;2023-04-02T08:46:32;18.83;;;10.73;;
1128;SDS011;553;51.038;7.216;2023-04-02T08:49:13;12.27;;;8.43;;
1128;SDS011;553;51.038;7.216;2023-04-02T08:51:43;14.03;;;10.17;;
1128;SDS011;553;51.038;7.216;2023-04-02T08:54:27;13.00;;;8.53;;
1128;SDS011;553;51.038;7.216;2023-04-02T08:56:59;13.23;;;8.07;;
1128;SDS011;553;51.038;7.216;2023-04-02T08:59:33;13.67;;;9.20;;
1128;SDS011;553;51.038;7.216;2023-04-02T09:05:04;15.53;;;9.40;;
1128;SDS011;553;51.038;7.216;2023-04-02T09:07:33;13.73;;;8.50;;
1128;SDS011;553;51.038;7.216;2023-04-02T09:10:00;9.30;;;6.63;;
1128;SDS011;553;51.038;7.216;2023-04-02T09:12:30;12.77;;;9.33;;
1128;SDS011;553;51.038;7.216;2023-04-02T09:17:30;12.97;;;8.90;;
1128;SDS011;553;51.038;7.216;2023-04-02T09:20:22;14.00;;;9.80;;
1128;SDS011;553;51.038;7.216;2023-04-02T09:22:51;15.67;;;9.60;;
1128;SDS011;553;51.038;7.216;2023-04-02T09:25:20;12.97;;;8.47;;
1128;SDS011;553;51.038;7.216;2023-04-02T09:28:02;15.57;;;10.00;;
1128;SDS011;553;51.038;7.216;2023-04-02T09:30:41;13.03;;;8.57;;
1128;SDS011;553;51.038;7.216;2023-04-02T09:33:17;14.97;;;10.60;;
1128;SDS011;553;51.038;7.216;2023-04-02T09:40:59;15.33;;;10.87;;
1128;SDS011;553;51.038;7.216;2023-04-02T09:43:31;18.37;;;12.23;;
1128;SDS011;553;51.038;7.216;2023-04-02T09:48:51;14.50;;;10.77;;
1128;SDS011;553;51.038;7.216;2023-04-02T09:51:21;18.03;;;11.30;;
1128;SDS011;553;51.038;7.216;2023-04-02T09:56:35;15.40;;;10.70;;
1128;SDS011;553;51.038;7.216;2023-04-02T09:59:16;18.50;;;12.00;;
1128;SDS011;553;51.038;7.216;2023-04-02T10:02:16;11.87;;;8.30;;
1128;SDS011;553;51.038;7.216;2023-04-02T10:04:48;15.30;;;10.47;;
1128;SDS011;553;51.038;7.216;2023-04-02T10:09:58;13.50;;;9.43;;
1128;SDS011;553;51.038;7.216;2023-04-02T10:12:54;14.40;;;9.37;;
1128;SDS011;553;51.038;7.216;2023-04-02T10:18:13;14.73;;;10.37;;
1128;SDS011;553;51.038;7.216;2023-04-02T10:20:41;12.17;;;9.43;;
1128;SDS011;553;51.038;7.216;2023-04-02T10:23:17;12.10;;;10.10;;
1128;SDS011;553;51.038;7.216;2023-04-02T10:25:47;16.43;;;9.73;;
1128;SDS011;553;51.038;7.216;2023-04-02T10:28:33;12.00;;;10.60;;
1128;SDS011;553;51.038;7.216;2023-04-02T10:34:23;12.00;;;9.77;;
1128;SDS011;553;51.038;7.216;2023-04-02T10:36:56;13.10;;;9.47;;
1128;SDS011;553;51.038;7.216;2023-04-02T10:39:37;16.23;;;11.10;;
1128;SDS011;553;51.038;7.216;2023-04-02T10:47:41;14.07;;;10.13;;
1128;SDS011;553;51.038;7.216;2023-04-02T10:53:05;12.00;;;9.30;;
1128;SDS011;553;51.038;7.216;2023-04-02T10:55:52;11.20;;;9.20;;
1128;SDS011;553;51.038;7.216;2023-04-02T10:58:27;11.03;;;8.30;;
1128;SDS011;553;51.038;7.216;2023-04-02T11:01:00;10.23;;;8.00;;
1128;SDS011;553;51.038;7.216;2023-04-02T11:03:40;11.70;;;8.70;;
1128;SDS011;553;51.038;7.216;2023-04-02T11:06:14;20.67;;;10.57;;
1128;SDS011;553;51.038;7.216;2023-04-02T11:08:47;9.77;;;7.93;;
1128;SDS011;553;51.038;7.216;2023-04-02T11:11:17;8.17;;;7.10;;
1128;SDS011;553;51.038;7.216;2023-04-02T11:16:20;10.30;;;7.80;;
1128;SDS011;553;51.038;7.216;2023-04-02T11:27:05;13.80;;;9.33;;
1128;SDS011;553;51.038;7.216;2023-04-02T11:29:33;15.07;;;9.70;;
1128;SDS011;553;51.038;7.216;2023-04-02T11:37:10;11.90;;;7.80;;
1128;SDS011;553;51.038;7.216;2023-04-02T11:39:56;10.63;;;8.37;;
1128;SDS011;553;51.038;7.216;2023-04-02T11:44:57;11.80;;;8.27;;
1128;SDS011;553;51.038;7.216;2023-04-02T11:47:27;11.03;;;8.63;;
1128;SDS011;553;51.038;7.216;2023-04-02T11:52:33;11.33;;;8.60;;
1128;SDS011;553;51.038;7.216;2023-04-02T11:55:29;9.63;;;8.23;;
1128;SDS011;553;51.038;7.216;2023-04-02T12:01:08;11.27;;;8.47;;
1128;SDS011;553;51.038;7.216;2023-04-02T12:07:12;11.30;;;8.27;;
1128;SDS011;553;51.038;7.216;2023-04-02T12:09:26;13.33;;;8.23;;
1128;SDS011;553;51.038;7.216;2023-04-02T12:11:57;12.50;;;9.03;;
1128;SDS011;553;51.038;7.216;2023-04-02T12:17:23;11.83;;;9.30;;
1128;SDS011;553;51.038;7.216;2023-04-02T12:19:56;12.13;;;9.57;;
1128;SDS011;553;51.038;7.216;2023-04-02T12:22:46;11.30;;;9.07;;
1128;SDS011;553;51.038;7.216;2023-04-02T12:25:22;11.83;;;9.13;;
1128;SDS011;553;51.038;7.216;2023-04-02T12:28:04;12.63;;;9.33;;
1128;SDS011;553;51.038;7.216;2023-04-02T12:30:40;12.53;;;8.87;;
1128;SDS011;553;51.038;7.216;2023-04-02T12:35:46;9.63;;;7.20;;
1128;SDS011;553;51.038;7.216;2023-04-02T12:38:25;10.57;;;8.53;;
1128;SDS011;553;51.038;7.216;2023-04-02T12:43:28;11.20;;;7.73;;
1128;SDS011;553;51.038;7.216;2023-04-02T12:46:03;9.00;;;7.93;;
1128;SDS011;553;51.038;7.216;2023-04-02T12:48:32;8.70;;;7.30;;
1128;SDS011;553;51.038;7.216;2023-04-02T12:51:01;6.40;;;5.73;;
1128;SDS011;553;51.038;7.216;2023-04-02T12:56:01;9.67;;;7.17;;
1128;SDS011;553;51.038;7.216;2023-04-02T12:58:37;10.27;;;8.53;;
1128;SDS011;553;51.038;7.216;2023-04-02T13:01:13;10.80;;;7.50;;
1128;SDS011;553;51.038;7.216;2023-04-02T13:04:04;17.67;;;10.33;;
1128;SDS011;553;51.038;7.216;2023-04-02T13:06:38;8.77;;;6.63;;
1128;SDS011;553;51.038;7.216;2023-04-02T13:09:06;7.30;;;6.00;;
1128;SDS011;553;51.038;7.216;2023-04-02T13:11:54;7.13;;;5.30;;
1128;SDS011;553;51.038;7.216;2023-04-02T13:14:21;7.20;;;5.97;;
1128;SDS011;553;51.038;7.216;2023-04-02T13:16:50;7.80;;;5.20;;
1128;SDS011;553;51.038;7.216;2023-04-02T13:19:32;5.83;;;5.23;;
1128;SDS011;553;51.038;7.216;2023-04-02T13:22:00;5.37;;;4.57;;
1128;SDS011;553;51.038;7.216;2023-04-02T13:24:31;6.57;;;4.23;;
1128;SDS011;553;51.038;7.216;2023-04-02T13:27:01;5.30;;;4.80;;
1128;SDS011;553;51.038;7.216;2023-04-02T13:29:32;8.60;;;6.40;;
1128;SDS011;553;51.038;7.216;2023-04-02T13:32:02;7.33;;;5.40;;
1128;SDS011;553;51.038;7.216;2023-04-02T13:34:31;4.20;;;3.80;;
1128;SDS011;553;51.038;7.216;2023-04-02T13:36:58;5.43;;;4.50;;
1128;SDS011;553;51.038;7.216;2023-04-02T13:39:24;4.43;;;4.00;;
1128;SDS011;553;51.038;7.216;2023-04-02T13:41:58;4.60;;;3.13;;
1128;SDS011;553;51.038;7.216;2023-04-02T13:44:31;7.33;;;4.20;;
1128;SDS011;553;51.038;7.216;2023-04-02T13:46:59;6.70;;;4.10;;
1128;SDS011;553;51.038;7.216;2023-04-02T13:49:26;6.70;;;4.20;;
1128;SDS011;553;51.038;7.216;2023-04-02T13:51:55;7.60;;;5.33;;
1128;SDS011;553;51.038;7.216;2023-04-02T13:54:25;8.33;;;4.37;;
1128;SDS011;553;51.038;7.216;2023-04-02T13:56:56;5.60;;;3.97;;
1128;SDS011;553;51.038;7.216;2023-04-02T13:59:23;5.23;;;4.20;;
1128;SDS011;553;51.038;7.216;2023-04-02T14:01:55;5.33;;;4.83;;
1128;SDS011;553;51.038;7.216;2023-04-02T14:04:25;7.03;;;4.43;;
1128;SDS011;553;51.038;7.216;2023-04-02T14:29:09;5.00;;;3.30;;
1128;SDS011;553;51.038;7.216;2023-04-02T14:31:58;5.60;;;4.80;;
1128;SDS011;553;51.038;7.216;2023-04-02T14:34:40;6.23;;;4.83;;
1128;SDS011;553;51.038;7.216;2023-04-02T14:40:31;5.53;;;4.70;;
1128;SDS011;553;51.038;7.216;2023-04-02T14:43:07;7.20;;;5.17;;
1128;SDS011;553;51.038;7.216;2023-04-02T14:45:57;6.80;;;4.83;;
1128;SDS011;553;51.038;7.216;2023-04-02T14:48:29;6.93;;;4.50;;
1128;SDS011;553;51.038;7.216;2023-04-02T14:51:19;6.33;;;5.67;;
1128;SDS011;553;51.038;7.216;2023-04-02T14:56:38;8.23;;;6.30;;
1128;SDS011;553;51.038;7.216;2023-04-02T14:59:16;6.63;;;5.13;;
1128;SDS011;553;51.038;7.216;2023-04-02T15:01:58;6.60;;;5.20;;
1128;SDS011;553;51.038;7.216;2023-04-02T15:04:43;4.40;;;4.00;;
1128;SDS011;553;51.038;7.216;2023-04-02T15:07:16;8.87;;;5.00;;
1128;SDS011;553;51.038;7.216;2023-04-02T15:09:53;6.27;;;4.43;;
1128;SDS011;553;51.038;7.216;2023-04-02T15:12:34;5.77;;;4.70;;
1128;SDS011;553;51.038;7.216;2023-04-02T15:15:07;4.43;;;3.70;;
1128;SDS011;553;51.038;7.216;2023-04-02T15:18:08;7.27;;;4.23;;
1128;SDS011;553;51.038;7.216;2023-04-02T15:20:53;6.37;;;5.67;;
1128;SDS011;553;51.038;7.216;2023-04-02T15:23:27;6.87;;;6.07;;
1128;SDS011;553;51.038;7.216;2023-04-02T15:26:13;5.00;;;3.77;;
1128;SDS011;553;51.038;7.216;2023-04-02T15:31:38;4.30;;;3.20;;
1128;SDS011;553;51.038;7.216;2023-04-02T15:39:28;4.67;;;3.47;;
1128;SDS011;553;51.038;7.216;2023-04-02T15:42:14;4.23;;;2.93;;
1128;SDS011;553;51.038;7.216;2023-04-02T15:44:53;4.20;;;3.50;;
1128;SDS011;553;51.038;7.216;2023-04-02T15:47:46;4.50;;;2.97;;
1128;SDS011;553;51.038;7.216;2023-04-02T15:53:31;5.93;;;3.27;;
1128;SDS011;553;51.038;7.216;2023-04-02T15:56:17;4.30;;;3.63;;
1128;SDS011;553;51.038;7.216;2023-04-02T15:58:58;6.40;;;5.50;;
1128;SDS011;553;51.038;7.216;2023-04-02T16:01:39;5.73;;;4.70;;
1128;SDS011;553;51.038;7.216;2023-04-02T16:18:32;6.00;;;4.90;;
1128;SDS011;553;51.038;7.216;2023-04-02T16:21:05;5.43;;;3.20;;
1128;SDS011;553;51.038;7.216;2023-04-02T16:23:34;4.53;;;3.80;;
1128;SDS011;553;51.038;7.216;2023-04-02T16:34:54;4.67;;;3.73;;
1128;SDS011;553;51.038;7.216;2023-04-02T16:43:35;4.00;;;3.10;;
1128;SDS011;553;51.038;7.216;2023-04-02T16:46:23;5.13;;;2.80;;
1128;SDS011;553;51.038;7.216;2023-04-02T16:54:30;3.70;;;2.60;;
1128;SDS011;553;51.038;7.216;2023-04-02T16:57:28;4.60;;;2.53;;
1128;SDS011;553;51.038;7.216;2023-04-02T17:00:16;3.20;;;2.63;;
1128;SDS011;553;51.038;7.216;2023-04-02T17:02:56;3.50;;;2.23;;
1128;SDS011;553;51.038;7.216;2023-04-02T17:06:06;3.80;;;2.00;;
1128;SDS011;553;51.038;7.216;2023-04-02T17:08:45;5.43;;;1.97;;
1128;SDS011;553;51.038;7.216;2023-04-02T17:12:02;3.50;;;1.83;;
1128;SDS011;553;51.038;7.216;2023-04-02T17:17:02;3.23;;;1.80;;
1128;SDS011;553;51.038;7.216;2023-04-02T17:19:30;3.40;;;2.00;;
1128;SDS011;553;51.038;7.216;2023-04-02T17:21:59;2.80;;;2.10;;
1128;SDS011;553;51.038;7.216;2023-04-02T17:24:29;4.50;;;2.73;;
1128;SDS011;553;51.038;7.216;2023-04-02T17:29:49;2.50;;;1.60;;
1128;SDS011;553;51.038;7.216;2023-04-02T17:32:25;2.43;;;1.93;;
1128;SDS011;553;51.038;7.216;2023-04-02T17:34:55;4.73;;;2.50;;
1128;SDS011;553;51.038;7.216;2023-04-02T17:37:30;2.00;;;1.40;;
1128;SDS011;553;51.038;7.216;2023-04-02T17:40:08;5.73;;;3.77;;
1128;SDS011;553;51.038;7.216;2023-04-02T17:42:46;4.47;;;2.83;;
1128;SDS011;553;51.038;7.216;2023-04-02T17:45:51;2.67;;;2.17;;
1128;SDS011;553;51.038;7.216;2023-04-02T17:51:15;5.13;;;2.67;;
1128;SDS011;553;51.038;7.216;2023-04-02T17:54:26;3.70;;;2.37;;
1128;SDS011;553;51.038;7.216;2023-04-02T18:03:14;2.67;;;2.37;;
1128;SDS011;553;51.038;7.216;2023-04-02T18:05:57;3.90;;;3.03;;
1128;SDS011;553;51.038;7.216;2023-04-02T18:08:39;4.83;;;2.90;;
1128;SDS011;553;51.038;7.216;2023-04-02T18:13:58;8.47;;;5.43;;
1128;SDS011;553;51.038;7.216;2023-04-02T18:17:33;4.50;;;3.43;;
1128;SDS011;553;51.038;7.216;2023-04-02T18:19:48;4.00;;;2.90;;
1128;SDS011;553;51.038;7.216;2023-04-02T18:22:40;5.07;;;2.67;;
1128;SDS011;553;51.038;7.216;2023-04-02T18:30:52;8.37;;;6.03;;
1128;SDS011;553;51.038;7.216;2023-04-02T18:35:58;7.10;;;6.07;;
1128;SDS011;553;51.038;7.216;2023-04-02T18:38:59;3.90;;;3.10;;
1128;SDS011;553;51.038;7.216;2023-04-02T18:41:41;7.80;;;4.60;;
1128;SDS011;553;51.038;7.216;2023-04-02T18:49:46;4.50;;;4.10;;
1128;SDS011;553;51.038;7.216;2023-04-02T18:52:17;6.93;;;3.20;;
1128;SDS011;553;51.038;7.216;2023-04-02T18:54:45;3.53;;;3.23;;
1128;SDS011;553;51.038;7.216;2023-04-02T18:57:21;4.23;;;3.30;;
1128;SDS011;553;51.038;7.216;2023-04-02T18:59:56;8.33;;;5.07;;
1128;SDS011;553;51.038;7.216;2023-04-02T19:05:31;5.20;;;3.00;;
1128;SDS011;553;51.038;7.216;2023-04-02T19:08:23;6.97;;;3.50;;
1128;SDS011;553;51.038;7.216;2023-04-02T19:11:07;7.30;;;5.23;;
1128;SDS011;553;51.038;7.216;2023-04-02T19:13:45;3.27;;;2.77;;
1128;SDS011;553;51.038;7.216;2023-04-02T19:19:00;6.43;;;4.67;;
1128;SDS011;553;51.038;7.216;2023-04-02T19:21:52;3.73;;;2.80;;
1128;SDS011;553;51.038;7.216;2023-04-02T19:27:16;6.17;;;5.57;;
1128;SDS011;553;51.038;7.216;2023-04-02T19:29:59;5.33;;;3.47;;
1128;SDS011;553;51.038;7.216;2023-04-02T19:32:35;4.03;;;2.97;;
1128;SDS011;553;51.038;7.216;2023-04-02T19:35:26;4.63;;;3.00;;
1128;SDS011;553;51.038;7.216;2023-04-02T19:37:59;3.50;;;2.93;;
1128;SDS011;553;51.038;7.216;2023-04-02T19:40:50;6.57;;;3.63;;
1128;SDS011;553;51.038;7.216;2023-04-02T19:43:25;4.27;;;3.50;;
1128;SDS011;553;51.038;7.216;2023-04-02T19:45:52;6.80;;;4.83;;
1128;SDS011;553;51.038;7.216;2023-04-02T19:48:26;4.07;;;3.57;;
1128;SDS011;553;51.038;7.216;2023-04-02T19:50:58;8.30;;;3.90;;
1128;SDS011;553;51.038;7.216;2023-04-02T19:53:24;5.20;;;2.97;;
1128;SDS011;553;51.038;7.216;2023-04-02T19:55:51;3.67;;;3.20;;
1128;SDS011;553;51.038;7.216;2023-04-02T20:00:55;3.93;;;3.27;;
1128;SDS011;553;51.038;7.216;2023-04-02T20:03:22;4.50;;;3.03;;
1128;SDS011;553;51.038;7.216;2023-04-02T20:05:49;3.37;;;3.03;;
1128;SDS011;553;51.038;7.216;2023-04-02T20:08:16;3.20;;;2.90;;
1128;SDS011;553;51.038;7.216;2023-04-02T20:10:43;3.27;;;2.80;;
1128;SDS011;553;51.038;7.216;2023-04-02T20:13:10;6.33;;;2.70;;
1128;SDS011;553;51.038;7.216;2023-04-02T20:15:37;3.93;;;3.10;;
1128;SDS011;553;51.038;7.216;2023-04-02T20:18:04;3.73;;;2.80;;
1128;SDS011;553;51.038;7.216;2023-04-02T20:20:31;4.17;;;2.90;;
1128;SDS011;553;51.038;7.216;2023-04-02T20:22:59;3.57;;;2.63;;
1128;SDS011;553;51.038;7.216;2023-04-02T20:25:26;4.37;;;2.77;;
1128;SDS011;553;51.038;7.216;2023-04-02T20:27:52;4.80;;;2.60;;